sensor_id;sensor_type;location;lat;lon;timestamp;temperature;humidity
14934;DHT22;7560;51.364;12.384;2022-11-18T00:02:53;6.00;99.90
14934;DHT22;7560;51.364;12.384;2022-11-18T00:07:55;6.00;99.90
14934;DHT22;7560;51.364;12.384;2022-11-18T00:12:57;6.10;99.90
14934;DHT22;7560;51.364;12.384;2022-11-18T00:18:17;6.10;99.90
14934;DHT22;7560;51.364;12.384;2022-11-18T00:23:19;6.20;99.90
14934;DHT22;7560;51.364;12.384;2022-11-18T00:28:21;6.20;99.90
14934;DHT22;7560;51.364;12.384;2022-11-18T00:33:22;6.10;99.90
14934;DHT22;7560;51.364;12.384;2022-11-18T00:38:26;6.10;99.90
14934;DHT22;7560;51.364;12.384;2022-11-18T00:43:28;6.10;99.90
14934;DHT22;7560;51.364;12.384;2022-11-18T00:48:30;6.10;99.90
14934;DHT22;7560;51.364;12.384;2022-11-18T00:53:32;6.10;99.90
14934;DHT22;7560;51.364;12.384;2022-11-18T00:58:34;6.20;99.90
14934;DHT22;7560;51.364;12.384;2022-11-18T01:03:36;6.10;99.90
14934;DHT22;7560;51.364;12.384;2022-11-18T01:08:38;6.00;99.90
14934;DHT22;7560;51.364;12.384;2022-11-18T01:13:39;6.00;99.90
14934;DHT22;7560;51.364;12.384;2022-11-18T01:18:41;6.00;99.90
14934;DHT22;7560;51.364;12.384;2022-11-18T01:23:43;6.00;99.90
14934;DHT22;7560;51.364;12.384;2022-11-18T01:28:45;6.00;99.90
14934;DHT22;7560;51.364;12.384;2022-11-18T01:33:47;5.90;99.90
14934;DHT22;7560;51.364;12.384;2022-11-18T01:38:49;5.90;99.90
14934;DHT22;7560;51.364;12.384;2022-11-18T01:44:01;5.90;99.90
14934;DHT22;7560;51.364;12.384;2022-11-18T01:49:06;6.00;99.90
14934;DHT22;7560;51.364;12.384;2022-11-18T01:54:19;5.90;99.90
14934;DHT22;7560;51.364;12.384;2022-11-18T01:59:25;6.00;99.90
14934;DHT22;7560;51.364;12.384;2022-11-18T02:04:28;6.00;99.90
14934;DHT22;7560;51.364;12.384;2022-11-18T02:09:30;5.90;99.90
14934;DHT22;7560;51.364;12.384;2022-11-18T02:14:35;5.90;99.90
14934;DHT22;7560;51.364;12.384;2022-11-18T02:30:06;6.00;99.90
14934;DHT22;7560;51.364;12.384;2022-11-18T02:35:22;6.00;99.90
14934;DHT22;7560;51.364;12.384;2022-11-18T02:45:36;6.00;99.90
14934;DHT22;7560;51.364;12.384;2022-11-18T02:50:40;5.90;99.90
14934;DHT22;7560;51.364;12.384;2022-11-18T02:55:44;5.90;99.90
14934;DHT22;7560;51.364;12.384;2022-11-18T03:00:58;5.80;99.90
14934;DHT22;7560;51.364;12.384;2022-11-18T03:06:55;5.80;99.90
14934;DHT22;7560;51.364;12.384;2022-11-18T03:12:23;5.80;99.90
14934;DHT22;7560;51.364;12.384;2022-11-18T03:17:49;5.70;99.90
14934;DHT22;7560;51.364;12.384;2022-11-18T03:28:50;5.60;99.90
14934;DHT22;7560;51.364;12.384;2022-11-18T03:34:02;5.60;99.90
14934;DHT22;7560;51.364;12.384;2022-11-18T03:39:07;5.60;99.90
14934;DHT22;7560;51.364;12.384;2022-11-18T03:44:15;5.70;99.90
14934;DHT22;7560;51.364;12.384;2022-11-18T03:49:27;5.60;99.90
14934;DHT22;7560;51.364;12.384;2022-11-18T03:54:32;5.60;99.90
14934;DHT22;7560;51.364;12.384;2022-11-18T03:59:47;5.50;99.90
14934;DHT22;7560;51.364;12.384;2022-11-18T04:04:52;5.40;99.90
14934;DHT22;7560;51.364;12.384;2022-11-18T04:10:06;5.40;99.90
14934;DHT22;7560;51.364;12.384;2022-11-18T04:15:10;5.40;99.90
14934;DHT22;7560;51.364;12.384;2022-11-18T04:20:20;5.30;99.90
14934;DHT22;7560;51.364;12.384;2022-11-18T04:25:22;5.40;99.90
14934;DHT22;7560;51.364;12.384;2022-11-18T04:30:25;5.30;99.90
14934;DHT22;7560;51.364;12.384;2022-11-18T04:35:27;5.30;99.90
14934;DHT22;7560;51.364;12.384;2022-11-18T04:40:28;5.10;99.90
14934;DHT22;7560;51.364;12.384;2022-11-18T04:45:30;5.20;99.90
14934;DHT22;7560;51.364;12.384;2022-11-18T04:50:32;5.10;99.90
14934;DHT22;7560;51.364;12.384;2022-11-18T04:55:36;5.20;99.90
14934;DHT22;7560;51.364;12.384;2022-11-18T05:00:38;5.00;99.90
14934;DHT22;7560;51.364;12.384;2022-11-18T05:05:40;4.90;99.90
14934;DHT22;7560;51.364;12.384;2022-11-18T05:10:42;4.80;99.90
14934;DHT22;7560;51.364;12.384;2022-11-18T05:15:44;4.90;99.90
14934;DHT22;7560;51.364;12.384;2022-11-18T05:20:45;4.80;99.90
14934;DHT22;7560;51.364;12.384;2022-11-18T05:25:47;4.90;99.90
14934;DHT22;7560;51.364;12.384;2022-11-18T05:30:49;4.80;99.90
14934;DHT22;7560;51.364;12.384;2022-11-18T05:35:50;4.70;99.90
14934;DHT22;7560;51.364;12.384;2022-11-18T05:40:55;4.70;99.90
14934;DHT22;7560;51.364;12.384;2022-11-18T05:45:58;4.60;99.90
14934;DHT22;7560;51.364;12.384;2022-11-18T05:51:00;4.80;99.90
14934;DHT22;7560;51.364;12.384;2022-11-18T05:56:23;4.70;99.90
14934;DHT22;7560;51.364;12.384;2022-11-18T06:01:39;4.70;99.90
14934;DHT22;7560;51.364;12.384;2022-11-18T06:06:43;4.70;99.90
14934;DHT22;7560;51.364;12.384;2022-11-18T06:11:49;4.60;99.90
14934;DHT22;7560;51.364;12.384;2022-11-18T06:16:56;4.60;99.90
14934;DHT22;7560;51.364;12.384;2022-11-18T06:21:59;4.60;99.90
14934;DHT22;7560;51.364;12.384;2022-11-18T06:27:02;4.50;99.90
14934;DHT22;7560;51.364;12.384;2022-11-18T06:32:04;4.60;99.90
14934;DHT22;7560;51.364;12.384;2022-11-18T06:37:17;4.50;99.90
14934;DHT22;7560;51.364;12.384;2022-11-18T06:42:19;4.50;99.90
14934;DHT22;7560;51.364;12.384;2022-11-18T06:47:39;4.40;99.90
14934;DHT22;7560;51.364;12.384;2022-11-18T06:52:40;4.40;99.90
14934;DHT22;7560;51.364;12.384;2022-11-18T06:57:42;4.30;99.90
14934;DHT22;7560;51.364;12.384;2022-11-18T07:02:44;4.30;99.90
14934;DHT22;7560;51.364;12.384;2022-11-18T07:07:45;4.30;99.90
14934;DHT22;7560;51.364;12.384;2022-11-18T07:12:47;4.30;99.90
14934;DHT22;7560;51.364;12.384;2022-11-18T07:17:49;4.20;99.90
14934;DHT22;7560;51.364;12.384;2022-11-18T07:22:51;4.20;99.90
14934;DHT22;7560;51.364;12.384;2022-11-18T07:27:54;4.20;99.90
14934;DHT22;7560;51.364;12.384;2022-11-18T07:32:55;4.20;99.90
14934;DHT22;7560;51.364;12.384;2022-11-18T07:37:57;4.20;99.90
14934;DHT22;7560;51.364;12.384;2022-11-18T07:42:59;4.30;99.90
14934;DHT22;7560;51.364;12.384;2022-11-18T07:48:01;4.20;99.90
14934;DHT22;7560;51.364;12.384;2022-11-18T07:53:02;4.20;99.90
14934;DHT22;7560;51.364;12.384;2022-11-18T07:58:04;4.10;99.90
14934;DHT22;7560;51.364;12.384;2022-11-18T08:03:06;4.20;99.90
14934;DHT22;7560;51.364;12.384;2022-11-18T08:08:09;4.10;99.90
14934;DHT22;7560;51.364;12.384;2022-11-18T08:13:11;3.90;99.90
14934;DHT22;7560;51.364;12.384;2022-11-18T08:18:13;4.00;99.90
14934;DHT22;7560;51.364;12.384;2022-11-18T08:23:15;3.80;99.90
14934;DHT22;7560;51.364;12.384;2022-11-18T08:28:17;4.00;99.90
14934;DHT22;7560;51.364;12.384;2022-11-18T08:33:19;3.90;99.90
14934;DHT22;7560;51.364;12.384;2022-11-18T08:38:21;3.80;99.90
14934;DHT22;7560;51.364;12.384;2022-11-18T08:43:22;3.90;99.90
14934;DHT22;7560;51.364;12.384;2022-11-18T08:48:24;3.60;99.90
14934;DHT22;7560;51.364;12.384;2022-11-18T08:53:26;3.40;99.90
14934;DHT22;7560;51.364;12.384;2022-11-18T08:58:27;3.30;99.90
14934;DHT22;7560;51.364;12.384;2022-11-18T09:03:29;3.30;99.90
14934;DHT22;7560;51.364;12.384;2022-11-18T09:08:32;3.20;99.90
14934;DHT22;7560;51.364;12.384;2022-11-18T09:13:34;3.30;99.90
14934;DHT22;7560;51.364;12.384;2022-11-18T09:18:57;3.30;99.90
14934;DHT22;7560;51.364;12.384;2022-11-18T09:24:13;3.20;99.90
14934;DHT22;7560;51.364;12.384;2022-11-18T09:29:16;3.20;99.90
14934;DHT22;7560;51.364;12.384;2022-11-18T09:34:18;3.00;99.90
14934;DHT22;7560;51.364;12.384;2022-11-18T09:39:24;2.80;99.90
14934;DHT22;7560;51.364;12.384;2022-11-18T09:49:59;2.70;99.90
14934;DHT22;7560;51.364;12.384;2022-11-18T09:55:21;2.70;99.90
14934;DHT22;7560;51.364;12.384;2022-11-18T10:00:28;2.70;99.90
14934;DHT22;7560;51.364;12.384;2022-11-18T10:05:48;2.50;99.90
14934;DHT22;7560;51.364;12.384;2022-11-18T10:16:17;2.70;99.90
14934;DHT22;7560;51.364;12.384;2022-11-18T10:26:58;2.70;99.90
14934;DHT22;7560;51.364;12.384;2022-11-18T10:32:07;2.80;99.90
14934;DHT22;7560;51.364;12.384;2022-11-18T10:37:29;2.70;99.90
14934;DHT22;7560;51.364;12.384;2022-11-18T10:42:51;2.60;99.90
14934;DHT22;7560;51.364;12.384;2022-11-18T10:52:57;2.60;99.90
14934;DHT22;7560;51.364;12.384;2022-11-18T10:58:02;2.50;99.90
14934;DHT22;7560;51.364;12.384;2022-11-18T11:03:21;2.70;99.90
14934;DHT22;7560;51.364;12.384;2022-11-18T11:08:23;2.60;99.90
14934;DHT22;7560;51.364;12.384;2022-11-18T11:13:42;2.60;99.90
14934;DHT22;7560;51.364;12.384;2022-11-18T11:18:48;2.50;99.90
14934;DHT22;7560;51.364;12.384;2022-11-18T11:23:52;2.70;99.90
14934;DHT22;7560;51.364;12.384;2022-11-18T11:34:23;2.60;99.90
14934;DHT22;7560;51.364;12.384;2022-11-18T11:44:58;2.40;99.90
14934;DHT22;7560;51.364;12.384;2022-11-18T12:06:16;2.60;99.90
14934;DHT22;7560;51.364;12.384;2022-11-18T12:11:25;2.60;99.90
14934;DHT22;7560;51.364;12.384;2022-11-18T12:16:42;2.40;99.90
14934;DHT22;7560;51.364;12.384;2022-11-18T12:26:49;2.50;99.90
14934;DHT22;7560;51.364;12.384;2022-11-18T12:31:53;2.60;99.90
14934;DHT22;7560;51.364;12.384;2022-11-18T12:36:56;2.70;99.90
14934;DHT22;7560;51.364;12.384;2022-11-18T12:42:44;2.50;99.90
14934;DHT22;7560;51.364;12.384;2022-11-18T12:48:37;2.20;99.90
14934;DHT22;7560;51.364;12.384;2022-11-18T12:53:47;2.50;99.90
14934;DHT22;7560;51.364;12.384;2022-11-18T13:09:34;1.80;99.90
14934;DHT22;7560;51.364;12.384;2022-11-18T13:14:40;1.90;99.90
14934;DHT22;7560;51.364;12.384;2022-11-18T13:25:28;2.00;99.90
14934;DHT22;7560;51.364;12.384;2022-11-18T13:30:32;2.30;99.90
14934;DHT22;7560;51.364;12.384;2022-11-18T13:35:39;2.00;99.90
14934;DHT22;7560;51.364;12.384;2022-11-18T13:40:45;2.10;99.90
14934;DHT22;7560;51.364;12.384;2022-11-18T13:46:11;1.90;99.90
14934;DHT22;7560;51.364;12.384;2022-11-18T13:51:14;1.80;99.90
14934;DHT22;7560;51.364;12.384;2022-11-18T14:06:35;1.40;99.90
14934;DHT22;7560;51.364;12.384;2022-11-18T14:11:40;1.40;99.90
14934;DHT22;7560;51.364;12.384;2022-11-18T14:16:42;1.20;99.90
14934;DHT22;7560;51.364;12.384;2022-11-18T14:21:44;1.10;99.90
14934;DHT22;7560;51.364;12.384;2022-11-18T14:26:46;1.10;99.90
14934;DHT22;7560;51.364;12.384;2022-11-18T14:32:25;1.00;99.90
14934;DHT22;7560;51.364;12.384;2022-11-18T14:37:25;1.20;99.90
14934;DHT22;7560;51.364;12.384;2022-11-18T14:42:27;1.20;99.90
14934;DHT22;7560;51.364;12.384;2022-11-18T14:47:29;1.10;99.90
14934;DHT22;7560;51.364;12.384;2022-11-18T14:52:32;1.00;99.90
14934;DHT22;7560;51.364;12.384;2022-11-18T14:57:34;1.00;99.90
14934;DHT22;7560;51.364;12.384;2022-11-18T15:02:35;1.10;99.90
14934;DHT22;7560;51.364;12.384;2022-11-18T15:07:37;1.10;99.90
14934;DHT22;7560;51.364;12.384;2022-11-18T15:12:39;1.20;99.90
14934;DHT22;7560;51.364;12.384;2022-11-18T15:17:41;1.20;99.90
14934;DHT22;7560;51.364;12.384;2022-11-18T15:22:43;1.20;99.90
14934;DHT22;7560;51.364;12.384;2022-11-18T15:27:44;1.10;99.90
14934;DHT22;7560;51.364;12.384;2022-11-18T15:32:46;1.10;99.90
14934;DHT22;7560;51.364;12.384;2022-11-18T15:37:48;1.20;99.90
14934;DHT22;7560;51.364;12.384;2022-11-18T15:42:50;1.20;99.90
14934;DHT22;7560;51.364;12.384;2022-11-18T15:47:53;1.20;99.90
14934;DHT22;7560;51.364;12.384;2022-11-18T15:52:54;1.10;99.90
14934;DHT22;7560;51.364;12.384;2022-11-18T15:57:56;1.10;99.90
14934;DHT22;7560;51.364;12.384;2022-11-18T16:02:58;0.90;99.90
14934;DHT22;7560;51.364;12.384;2022-11-18T16:07:59;1.10;99.90
14934;DHT22;7560;51.364;12.384;2022-11-18T16:13:01;1.10;99.90
14934;DHT22;7560;51.364;12.384;2022-11-18T16:18:03;1.00;99.90
14934;DHT22;7560;51.364;12.384;2022-11-18T16:23:05;0.80;99.90
14934;DHT22;7560;51.364;12.384;2022-11-18T16:28:07;1.00;99.90
14934;DHT22;7560;51.364;12.384;2022-11-18T16:33:08;1.00;99.90
14934;DHT22;7560;51.364;12.384;2022-11-18T16:38:10;1.10;99.90
14934;DHT22;7560;51.364;12.384;2022-11-18T16:43:13;1.20;99.90
14934;DHT22;7560;51.364;12.384;2022-11-18T16:48:15;1.10;99.90
14934;DHT22;7560;51.364;12.384;2022-11-18T16:53:17;1.20;99.90
14934;DHT22;7560;51.364;12.384;2022-11-18T16:58:19;1.20;99.90
14934;DHT22;7560;51.364;12.384;2022-11-18T17:03:21;1.30;99.90
14934;DHT22;7560;51.364;12.384;2022-11-18T17:08:23;1.20;99.90
14934;DHT22;7560;51.364;12.384;2022-11-18T17:13:26;1.20;99.90
14934;DHT22;7560;51.364;12.384;2022-11-18T17:18:28;1.30;99.90
14934;DHT22;7560;51.364;12.384;2022-11-18T17:23:30;1.30;99.90
14934;DHT22;7560;51.364;12.384;2022-11-18T17:28:33;1.40;99.90
14934;DHT22;7560;51.364;12.384;2022-11-18T17:33:36;1.30;99.90
14934;DHT22;7560;51.364;12.384;2022-11-18T17:38:40;1.30;99.90
14934;DHT22;7560;51.364;12.384;2022-11-18T17:43:42;1.20;99.90
14934;DHT22;7560;51.364;12.384;2022-11-18T17:48:44;1.20;99.90
14934;DHT22;7560;51.364;12.384;2022-11-18T17:53:46;1.10;99.90
14934;DHT22;7560;51.364;12.384;2022-11-18T17:58:48;1.00;99.90
14934;DHT22;7560;51.364;12.384;2022-11-18T18:03:50;1.00;99.90
14934;DHT22;7560;51.364;12.384;2022-11-18T18:08:56;0.90;99.90
14934;DHT22;7560;51.364;12.384;2022-11-18T18:13:58;0.90;99.90
14934;DHT22;7560;51.364;12.384;2022-11-18T18:19:17;0.80;99.90
14934;DHT22;7560;51.364;12.384;2022-11-18T18:24:19;0.80;99.90
14934;DHT22;7560;51.364;12.384;2022-11-18T18:29:21;0.90;99.90
14934;DHT22;7560;51.364;12.384;2022-11-18T18:34:25;1.00;99.90
14934;DHT22;7560;51.364;12.384;2022-11-18T18:39:27;0.90;99.90
14934;DHT22;7560;51.364;12.384;2022-11-18T18:44:29;0.80;99.90
14934;DHT22;7560;51.364;12.384;2022-11-18T18:49:49;0.70;99.90
14934;DHT22;7560;51.364;12.384;2022-11-18T18:54:51;0.80;99.90
14934;DHT22;7560;51.364;12.384;2022-11-18T18:59:52;0.80;99.90
14934;DHT22;7560;51.364;12.384;2022-11-18T19:04:54;0.90;99.90
14934;DHT22;7560;51.364;12.384;2022-11-18T19:09:56;0.80;99.90
14934;DHT22;7560;51.364;12.384;2022-11-18T19:14:57;0.80;99.90
14934;DHT22;7560;51.364;12.384;2022-11-18T19:19:59;0.80;99.90
14934;DHT22;7560;51.364;12.384;2022-11-18T19:25:19;0.60;99.90
14934;DHT22;7560;51.364;12.384;2022-11-18T19:30:21;0.80;99.90
14934;DHT22;7560;51.364;12.384;2022-11-18T19:35:24;0.90;99.90
14934;DHT22;7560;51.364;12.384;2022-11-18T19:40:26;0.80;99.90
14934;DHT22;7560;51.364;12.384;2022-11-18T19:45:27;0.70;99.90
14934;DHT22;7560;51.364;12.384;2022-11-18T19:50:29;0.80;99.90
14934;DHT22;7560;51.364;12.384;2022-11-18T19:55:31;0.60;99.90
14934;DHT22;7560;51.364;12.384;2022-11-18T20:00:32;0.50;99.90
14934;DHT22;7560;51.364;12.384;2022-11-18T20:05:34;0.50;99.90
14934;DHT22;7560;51.364;12.384;2022-11-18T20:10:54;0.40;99.90
14934;DHT22;7560;51.364;12.384;2022-11-18T20:16:01;0.30;99.90
14934;DHT22;7560;51.364;12.384;2022-11-18T20:21:07;0.20;99.90
14934;DHT22;7560;51.364;12.384;2022-11-18T20:26:11;0.10;99.90
14934;DHT22;7560;51.364;12.384;2022-11-18T20:31:15;0.10;99.90
14934;DHT22;7560;51.364;12.384;2022-11-18T20:36:25;0.10;99.90
14934;DHT22;7560;51.364;12.384;2022-11-18T20:41:27;0.20;99.90
14934;DHT22;7560;51.364;12.384;2022-11-18T20:46:31;0.20;99.90
14934;DHT22;7560;51.364;12.384;2022-11-18T20:51:34;0.30;99.90
14934;DHT22;7560;51.364;12.384;2022-11-18T20:56:36;0.30;99.90
14934;DHT22;7560;51.364;12.384;2022-11-18T21:01:38;0.30;99.90
14934;DHT22;7560;51.364;12.384;2022-11-18T21:06:40;0.30;99.90
14934;DHT22;7560;51.364;12.384;2022-11-18T21:11:42;0.30;99.90
14934;DHT22;7560;51.364;12.384;2022-11-18T21:16:44;0.30;99.90
14934;DHT22;7560;51.364;12.384;2022-11-18T21:21:46;0.30;99.90
14934;DHT22;7560;51.364;12.384;2022-11-18T21:26:51;0.30;99.90
14934;DHT22;7560;51.364;12.384;2022-11-18T21:31:55;0.30;99.90
14934;DHT22;7560;51.364;12.384;2022-11-18T21:36:58;0.40;99.90
14934;DHT22;7560;51.364;12.384;2022-11-18T21:42:00;0.40;99.90
14934;DHT22;7560;51.364;12.384;2022-11-18T21:47:02;0.30;99.90
14934;DHT22;7560;51.364;12.384;2022-11-18T21:52:04;0.30;99.90
14934;DHT22;7560;51.364;12.384;2022-11-18T21:57:05;0.30;99.90
14934;DHT22;7560;51.364;12.384;2022-11-18T22:02:12;0.40;99.90
14934;DHT22;7560;51.364;12.384;2022-11-18T22:07:14;0.30;99.90
14934;DHT22;7560;51.364;12.384;2022-11-18T22:12:16;0.30;99.90
14934;DHT22;7560;51.364;12.384;2022-11-18T22:17:18;0.20;99.90
14934;DHT22;7560;51.364;12.384;2022-11-18T22:22:20;0.20;99.90
14934;DHT22;7560;51.364;12.384;2022-11-18T22:27:22;0.10;99.90
14934;DHT22;7560;51.364;12.384;2022-11-18T22:32:24;0.10;99.90
14934;DHT22;7560;51.364;12.384;2022-11-18T22:37:25;0.00;99.90
14934;DHT22;7560;51.364;12.384;2022-11-18T22:42:27;-0.10;99.90
14934;DHT22;7560;51.364;12.384;2022-11-18T22:47:47;-0.10;99.90
14934;DHT22;7560;51.364;12.384;2022-11-18T22:52:49;-0.10;99.90
14934;DHT22;7560;51.364;12.384;2022-11-18T22:57:51;-0.10;99.90
14934;DHT22;7560;51.364;12.384;2022-11-18T23:02:53;-0.10;99.90
14934;DHT22;7560;51.364;12.384;2022-11-18T23:07:54;-0.10;99.90
14934;DHT22;7560;51.364;12.384;2022-11-18T23:12:56;-0.20;99.90
14934;DHT22;7560;51.364;12.384;2022-11-18T23:18:17;-0.30;99.90
14934;DHT22;7560;51.364;12.384;2022-11-18T23:23:18;-0.40;99.90
14934;DHT22;7560;51.364;12.384;2022-11-18T23:28:20;-0.50;99.90
14934;DHT22;7560;51.364;12.384;2022-11-18T23:33:22;-0.60;99.90
14934;DHT22;7560;51.364;12.384;2022-11-18T23:38:28;-0.70;99.90
14934;DHT22;7560;51.364;12.384;2022-11-18T23:43:31;-0.80;99.90
14934;DHT22;7560;51.364;12.384;2022-11-18T23:48:37;-0.80;99.90
14934;DHT22;7560;51.364;12.384;2022-11-18T23:53:39;-0.90;99.90
14934;DHT22;7560;51.364;12.384;2022-11-18T23:58:44;-1.00;99.90
